createdAt,value
2022-11-19T00:01:24.756Z,100958.50
2022-11-19T00:03:53.152Z,100951.63
2022-11-19T00:06:22.283Z,100955.91
2022-11-19T00:08:49.442Z,100945.66
2022-11-19T00:11:37.455Z,100945.63
2022-11-19T00:14:04.515Z,100939.69
2022-11-19T00:16:31.035Z,100942.25
2022-11-19T00:18:57.703Z,100937.16
2022-11-19T00:21:24.344Z,100938.88
2022-11-19T00:23:54.356Z,100944.84
2022-11-19T00:26:21.817Z,100943.16
2022-11-19T00:28:48.555Z,100934.66
2022-11-19T00:31:16.300Z,100936.44
2022-11-19T00:33:44.519Z,100941.47
2022-11-19T00:36:15.311Z,100942.31
2022-11-19T00:38:42.420Z,100940.66
2022-11-19T00:41:09.133Z,100948.25
2022-11-19T00:43:47.982Z,100947.41
2022-11-19T00:46:27.324Z,100955.81
2022-11-19T00:48:55.811Z,100954.91
2022-11-19T00:51:23.730Z,100960.88
2022-11-19T00:53:51.089Z,100965.97
2022-11-19T00:56:20.477Z,100972.72
2022-11-19T00:58:47.966Z,100959.94
2022-11-19T01:01:16.331Z,100965.03
2022-11-19T01:03:46.023Z,100968.47
2022-11-19T01:06:18.669Z,100961.63
2022-11-19T01:08:47.463Z,100964.13
2022-11-19T01:11:18.629Z,100969.25
2022-11-19T01:13:45.596Z,100963.25
2022-11-19T01:16:15.886Z,100959.00
2022-11-19T01:18:43.815Z,100958.16
2022-11-19T01:21:11.643Z,100956.38
2022-11-19T01:23:40.436Z,100950.41
2022-11-19T01:26:07.548Z,100951.22
2022-11-19T01:28:35.060Z,100958.91
2022-11-19T01:31:13.843Z,100960.56
2022-11-19T01:33:40.859Z,100959.69
2022-11-19T01:36:18.668Z,100944.34
2022-11-19T01:38:50.758Z,100951.06
2022-11-19T01:41:23.389Z,100944.22
2022-11-19T01:43:52.594Z,100957.03
2022-11-19T01:46:21.944Z,100936.53
2022-11-19T01:48:53.932Z,100944.19
2022-11-19T01:51:35.630Z,100945.13
2022-11-19T01:54:08.625Z,100945.03
2022-11-19T01:56:36.383Z,100938.22
2022-11-19T01:59:15.923Z,100932.28
2022-11-19T02:01:44.063Z,100929.63
2022-11-19T02:04:11.808Z,100925.28
2022-11-19T02:06:38.938Z,100916.78
2022-11-19T02:09:05.495Z,100920.22
2022-11-19T02:11:41.053Z,100923.63
2022-11-19T02:14:29.324Z,100925.28
2022-11-19T02:17:26.551Z,100915.91
2022-11-19T02:20:19.919Z,100910.81
2022-11-19T02:23:31.801Z,100909.97
2022-11-19T02:26:35.639Z,100909.06
2022-11-19T02:29:20.867Z,100904.91
2022-11-19T02:32:04.145Z,100899.72
2022-11-19T02:34:41.408Z,100895.47
2022-11-19T02:37:19.547Z,100900.59
2022-11-19T02:40:03.193Z,100890.38
2022-11-19T02:42:33.519Z,100895.50
2022-11-19T02:45:08.636Z,100897.97
2022-11-19T02:47:40.319Z,100897.94
2022-11-19T02:50:12.825Z,100908.97
2022-11-19T02:52:43.840Z,100903.06
2022-11-19T02:55:14.800Z,100900.53
2022-11-19T02:57:48.552Z,100891.16
2022-11-19T03:00:33.794Z,100895.47
2022-11-19T03:03:28.611Z,100891.84
2022-11-19T03:06:03.604Z,100875.66
2022-11-19T03:08:30.405Z,100873.97
2022-11-19T03:10:56.942Z,100870.50
2022-11-19T03:13:45.398Z,100873.06
2022-11-19T03:16:42.883Z,100871.28
2022-11-19T03:19:23.095Z,100874.78
2022-11-19T03:21:58.387Z,100870.53
2022-11-19T03:24:32.865Z,100871.25
2022-11-19T03:27:35.437Z,100874.59
2022-11-19T03:30:03.392Z,100874.66
2022-11-19T03:32:35.265Z,100884.03
2022-11-19T03:35:07.556Z,100866.16
2022-11-19T03:37:37.832Z,100861.94
2022-11-19T03:40:08.532Z,100852.50
2022-11-19T03:42:36.816Z,100849.84
2022-11-19T03:45:10.715Z,100855.53
2022-11-19T03:47:40.291Z,100858.56
2022-11-19T03:50:35.142Z,100851.78
2022-11-19T03:53:04.604Z,100832.25
2022-11-19T03:55:35.410Z,100842.63
2022-11-19T03:58:06.980Z,100834.94
2022-11-19T04:00:33.793Z,100835.81
2022-11-19T04:03:00.823Z,100833.38
2022-11-19T04:05:27.488Z,100832.59
2022-11-19T04:07:54.078Z,100830.94
2022-11-19T04:10:20.806Z,100830.88
2022-11-19T04:12:47.716Z,100824.78
2022-11-19T04:15:15.250Z,100821.41
2022-11-19T04:17:41.993Z,100825.69
2022-11-19T04:20:09.450Z,100813.81
2022-11-19T04:22:35.977Z,100822.38
2022-11-19T04:25:02.605Z,100829.22
2022-11-19T04:27:29.220Z,100816.38
2022-11-19T04:29:55.914Z,100822.44
2022-11-19T04:32:22.455Z,100819.03
2022-11-19T04:34:49.546Z,100806.13
2022-11-19T04:37:16.155Z,100810.47
2022-11-19T04:39:42.852Z,100814.75
2022-11-19T04:42:09.432Z,100806.16
2022-11-19T04:44:35.954Z,100811.06
2022-11-19T04:47:02.659Z,100808.47
2022-11-19T04:49:29.224Z,100800.69
2022-11-19T04:51:56.022Z,100799.84
2022-11-19T04:54:22.748Z,100803.53
2022-11-19T04:56:49.379Z,100807.00
2022-11-19T04:59:15.907Z,100804.31
2022-11-19T05:01:42.552Z,100800.41
2022-11-19T05:04:10.062Z,100799.69
2022-11-19T05:06:36.645Z,100795.78
2022-11-19T05:09:03.287Z,100807.81
2022-11-19T05:11:29.845Z,100800.59
2022-11-19T05:13:56.641Z,100798.31
2022-11-19T05:16:23.282Z,100795.09
2022-11-19T05:18:49.846Z,100797.66
2022-11-19T05:21:16.522Z,100793.31
2022-11-19T05:23:43.140Z,100793.31
2022-11-19T05:26:09.759Z,100801.81
2022-11-19T05:28:40.064Z,100800.19
2022-11-19T05:31:07.628Z,100789.88
2022-11-19T05:33:34.742Z,100787.25
2022-11-19T05:36:02.450Z,100799.09
2022-11-19T05:38:29.314Z,100777.00
2022-11-19T05:40:55.891Z,100767.53
2022-11-19T05:43:22.535Z,100774.41
2022-11-19T05:45:49.261Z,100773.56
2022-11-19T05:48:15.799Z,100779.47
2022-11-19T05:50:42.988Z,100775.94
2022-11-19T05:53:09.949Z,100787.00
2022-11-19T05:55:36.593Z,100787.94
2022-11-19T05:58:03.544Z,100779.38
2022-11-19T06:00:30.352Z,100786.09
2022-11-19T06:02:56.927Z,100779.19
2022-11-19T06:05:23.745Z,100775.50
2022-11-19T06:07:50.527Z,100780.91
2022-11-19T06:10:17.222Z,100781.84
2022-11-19T06:12:46.837Z,100778.00
2022-11-19T06:15:14.360Z,100774.88
2022-11-19T06:17:41.482Z,100773.75
2022-11-19T06:20:10.912Z,100755.22
2022-11-19T06:22:38.521Z,100755.25
2022-11-19T06:25:06.026Z,100758.72
2022-11-19T06:27:32.568Z,100771.34
2022-11-19T06:29:59.255Z,100771.63
2022-11-19T06:32:25.899Z,100772.03
2022-11-19T06:34:52.507Z,100759.41
2022-11-19T06:37:19.168Z,100754.84
2022-11-19T06:39:45.720Z,100765.56
2022-11-19T06:42:30.951Z,100765.59
2022-11-19T06:44:57.555Z,100757.66
2022-11-19T06:47:24.151Z,100766.38
2022-11-19T06:49:50.930Z,100756.69
2022-11-19T06:52:17.459Z,100761.44
2022-11-19T06:54:44.037Z,100766.00
2022-11-19T06:57:10.668Z,100763.72
2022-11-19T06:59:39.572Z,100761.31
2022-11-19T07:02:07.267Z,100766.78
2022-11-19T07:04:33.879Z,100760.38
2022-11-19T07:07:00.519Z,100760.06
2022-11-19T07:09:27.318Z,100761.75
2022-11-19T07:11:54.158Z,100761.22
2022-11-19T07:14:20.652Z,100764.44
2022-11-19T07:16:47.266Z,100760.44
2022-11-19T07:19:13.856Z,100754.03
2022-11-19T07:21:40.424Z,100754.22
2022-11-19T07:24:09.328Z,100755.88
2022-11-19T07:26:36.908Z,100763.75
2022-11-19T07:29:12.619Z,100763.41
2022-11-19T07:31:39.286Z,100750.97
2022-11-19T07:34:10.024Z,100752.84
2022-11-19T07:36:40.739Z,100750.03
2022-11-19T07:39:07.449Z,100762.69
2022-11-19T07:41:52.888Z,100760.28
2022-11-19T07:44:19.691Z,100758.63
2022-11-19T07:46:46.310Z,100752.66
2022-11-19T07:49:15.666Z,100752.59
2022-11-19T07:51:44.647Z,100755.09
2022-11-19T07:54:12.854Z,100751.72
2022-11-19T07:56:39.912Z,100750.47
2022-11-19T07:59:06.682Z,100749.88
2022-11-19T08:01:33.340Z,100740.53
2022-11-19T08:04:00.356Z,100751.66
2022-11-19T08:06:28.622Z,100742.19
2022-11-19T08:08:58.760Z,100737.84
2022-11-19T08:11:25.474Z,100738.63
2022-11-19T08:13:52.816Z,100728.34
2022-11-19T08:16:38.584Z,100730.44
2022-11-19T08:19:09.463Z,100740.34
2022-11-19T08:21:39.975Z,100734.59
2022-11-19T08:24:07.664Z,100731.94
2022-11-19T08:26:34.623Z,100725.00
2022-11-19T08:29:01.684Z,100716.94
2022-11-19T08:31:28.691Z,100718.78
2022-11-19T08:33:58.126Z,100723.97
2022-11-19T08:36:24.847Z,100724.59
2022-11-19T08:38:51.399Z,100721.84
2022-11-19T08:41:36.250Z,100711.06
2022-11-19T08:44:03.378Z,100718.84
2022-11-19T08:46:30.044Z,100711.94
2022-11-19T08:48:58.788Z,100714.94
2022-11-19T08:51:25.466Z,100717.94
2022-11-19T08:53:55.069Z,100710.41
2022-11-19T08:56:22.155Z,100711.09
2022-11-19T08:58:49.345Z,100721.53
2022-11-19T09:01:17.479Z,100724.78
2022-11-19T09:03:44.189Z,100700.69
2022-11-19T09:06:11.845Z,100706.84
2022-11-19T09:08:39.006Z,100703.31
2022-11-19T09:11:20.311Z,100700.75
2022-11-19T09:13:47.294Z,100700.91
2022-11-19T09:16:14.433Z,100705.16
2022-11-19T09:18:42.234Z,100708.09
2022-11-19T09:21:11.860Z,100701.56
2022-11-19T09:23:39.884Z,100706.75
2022-11-19T09:26:13.556Z,100699.50
2022-11-19T09:28:40.913Z,100702.97
2022-11-19T09:31:13.703Z,100695.09
2022-11-19T09:33:42.270Z,100700.16
2022-11-19T09:36:10.303Z,100699.47
2022-11-19T09:38:37.166Z,100693.25
2022-11-19T09:41:21.517Z,100684.31
2022-11-19T09:44:20.937Z,100692.81
2022-11-19T09:47:12.458Z,100691.13
2022-11-19T09:49:46.902Z,100697.06
2022-11-19T09:52:20.205Z,100690.19
2022-11-19T09:54:51.517Z,100687.63
2022-11-19T09:57:51.025Z,100688.63
2022-11-19T10:00:21.868Z,100681.69
2022-11-19T10:02:48.852Z,100677.41
2022-11-19T10:05:30.950Z,100670.50
2022-11-19T10:08:03.425Z,100673.44
2022-11-19T10:10:51.955Z,100666.28
2022-11-19T10:14:01.660Z,100669.56
2022-11-19T10:16:46.610Z,100650.06
2022-11-19T10:19:24.373Z,100653.22
2022-11-19T10:22:10.313Z,100653.16
2022-11-19T10:24:59.447Z,100650.59
2022-11-19T10:27:29.598Z,100641.97
2022-11-19T10:30:00.220Z,100645.34
2022-11-19T10:32:35.870Z,100647.09
2022-11-19T10:35:09.011Z,100632.47
2022-11-19T10:37:40.859Z,100642.78
2022-11-19T10:40:21.360Z,100645.22
2022-11-19T10:42:54.035Z,100636.53
2022-11-19T10:45:28.585Z,100636.78
2022-11-19T10:48:20.527Z,100635.97
2022-11-19T10:50:47.276Z,100644.22
2022-11-19T10:53:25.080Z,100630.59
2022-11-19T10:55:56.240Z,100633.72
2022-11-19T10:58:27.443Z,100628.50
2022-11-19T11:00:55.807Z,100623.69
2022-11-19T11:03:43.678Z,100610.94
2022-11-19T11:06:10.986Z,100616.34
2022-11-19T11:08:54.509Z,100622.22
2022-11-19T11:11:53.214Z,100624.44
2022-11-19T11:14:40.972Z,100605.34
2022-11-19T11:17:19.728Z,100612.25
2022-11-19T11:20:01.508Z,100607.75
2022-11-19T11:22:28.489Z,100612.28
2022-11-19T11:24:55.110Z,100608.66
2022-11-19T11:27:27.242Z,100602.97
2022-11-19T11:30:14.041Z,100603.25
2022-11-19T11:32:41.664Z,100602.31
2022-11-19T11:35:34.334Z,100585.28
2022-11-19T11:38:02.546Z,100594.75
2022-11-19T11:40:30.193Z,100594.63
2022-11-19T11:42:57.402Z,100598.13
2022-11-19T11:45:35.056Z,100593.66
2022-11-19T11:48:21.800Z,100587.72
2022-11-19T11:50:48.707Z,100578.34
2022-11-19T11:53:27.331Z,100585.09
2022-11-19T11:56:04.896Z,100580.75
2022-11-19T11:58:33.940Z,100562.78
2022-11-19T12:01:18.378Z,100576.53
2022-11-19T12:03:59.318Z,100563.63
2022-11-19T12:06:39.604Z,100565.09
2022-11-19T12:09:22.167Z,100581.81
2022-11-19T12:12:03.665Z,100579.13
2022-11-19T12:14:36.666Z,100578.84
2022-11-19T12:17:35.059Z,100573.97
2022-11-19T12:20:22.605Z,100577.97
2022-11-19T12:23:21.858Z,100567.25
2022-11-19T12:25:57.744Z,100567.63
2022-11-19T12:28:24.368Z,100570.81
2022-11-19T12:31:10.696Z,100568.69
2022-11-19T12:33:46.651Z,100569.81
2022-11-19T12:36:40.634Z,100558.78
2022-11-19T12:39:45.548Z,100555.72
2022-11-19T12:42:33.657Z,100564.25
2022-11-19T12:45:36.181Z,100548.09
2022-11-19T12:48:21.479Z,100533.31
2022-11-19T12:51:12.867Z,100525.66
2022-11-19T12:54:00.793Z,100539.44
2022-11-19T12:56:48.040Z,100540.25
2022-11-19T12:59:20.880Z,100519.53
2022-11-19T13:01:52.635Z,100536.19
2022-11-19T13:04:27.450Z,100527.47
2022-11-19T13:06:57.893Z,100520.25
2022-11-19T13:09:42.202Z,100517.69
2022-11-19T13:12:16.948Z,100523.00
2022-11-19T13:15:03.486Z,100508.84
2022-11-19T13:17:37.293Z,100518.59
2022-11-19T13:20:15.201Z,100518.84
2022-11-19T13:22:48.024Z,100512.47
2022-11-19T13:25:36.165Z,100516.16
2022-11-19T13:28:08.330Z,100523.78
2022-11-19T13:30:38.330Z,100512.81
2022-11-19T13:33:18.832Z,100521.88
2022-11-19T13:35:48.463Z,100507.69
2022-11-19T13:38:44.345Z,100504.63
2022-11-19T13:41:30.571Z,100500.59
2022-11-19T13:44:17.538Z,100495.94
2022-11-19T13:46:48.700Z,100500.47
2022-11-19T13:49:41.559Z,100501.78
2022-11-19T13:52:25.142Z,100499.69
2022-11-19T13:54:51.895Z,100491.69
2022-11-19T13:57:34.822Z,100500.44
2022-11-19T14:00:04.023Z,100497.25
2022-11-19T14:02:41.147Z,100500.84
2022-11-19T14:05:26.561Z,100488.00
2022-11-19T14:07:53.140Z,100501.88
2022-11-19T14:10:38.037Z,100500.91
2022-11-19T14:13:17.805Z,100498.72
2022-11-19T14:16:22.390Z,100502.47
2022-11-19T14:19:29.330Z,100494.03
2022-11-19T14:22:16.452Z,100500.94
2022-11-19T14:25:04.977Z,100488.78
2022-11-19T14:27:33.361Z,100499.72
2022-11-19T14:30:14.079Z,100502.00
2022-11-19T14:32:47.462Z,100502.47
2022-11-19T14:35:31.027Z,100503.06
2022-11-19T14:38:29.878Z,100505.66
2022-11-19T14:41:24.487Z,100510.03
2022-11-19T14:44:10.075Z,100507.50
2022-11-19T14:46:40.443Z,100506.59
2022-11-19T14:49:26.892Z,100507.09
2022-11-19T14:51:57.652Z,100505.88
2022-11-19T14:54:35.986Z,100498.09
2022-11-19T14:57:41.164Z,100505.28
2022-11-19T15:00:29.614Z,100497.50
2022-11-19T15:02:59.956Z,100494.63
2022-11-19T15:05:33.196Z,100499.06
2022-11-19T15:08:18.338Z,100497.34
2022-11-19T15:11:12.192Z,100489.00
2022-11-19T15:13:43.888Z,100491.59
2022-11-19T15:16:22.666Z,100497.75
2022-11-19T15:19:21.607Z,100496.50
2022-11-19T15:21:56.556Z,100495.72
2022-11-19T15:24:37.156Z,100492.34
2022-11-19T15:27:41.589Z,100488.91
2022-11-19T15:30:21.109Z,100499.53
2022-11-19T15:32:50.803Z,100488.78
2022-11-19T15:35:57.322Z,100493.69
2022-11-19T15:38:24.069Z,100492.91
2022-11-19T15:40:56.081Z,100489.44
2022-11-19T15:43:43.813Z,100484.81
2022-11-19T15:46:20.334Z,100489.03
2022-11-19T15:49:14.893Z,100487.09
2022-11-19T15:51:56.597Z,100491.34
2022-11-19T15:54:31.304Z,100477.44
2022-11-19T15:57:06.082Z,100480.91
2022-11-19T15:59:36.511Z,100477.84
2022-11-19T16:02:07.069Z,100483.94
2022-11-19T16:04:38.986Z,100494.69
2022-11-19T16:07:10.153Z,100489.66
2022-11-19T16:09:40.738Z,100479.38
2022-11-19T16:12:37.409Z,100488.75
2022-11-19T16:15:42.810Z,100492.16
2022-11-19T16:18:18.515Z,100502.22
2022-11-19T16:20:48.585Z,100495.56
2022-11-19T16:23:20.123Z,100498.03
2022-11-19T16:25:47.747Z,100492.44
2022-11-19T16:28:18.291Z,100502.28
2022-11-19T16:30:53.913Z,100498.25
2022-11-19T16:33:27.052Z,100503.28
2022-11-19T16:36:17.761Z,100497.97
2022-11-19T16:38:50.262Z,100497.16
2022-11-19T16:41:38.707Z,100499.81
2022-11-19T16:44:09.627Z,100496.44
2022-11-19T16:46:37.796Z,100500.59
2022-11-19T16:49:12.586Z,100494.75
2022-11-19T16:52:00.613Z,100498.97
2022-11-19T16:54:49.965Z,100498.97
2022-11-19T16:57:23.552Z,100496.34
2022-11-19T16:59:53.053Z,100500.53
2022-11-19T17:02:22.527Z,100495.38
2022-11-19T17:04:55.511Z,100503.78
2022-11-19T17:07:26.325Z,100501.41
2022-11-19T17:10:31.406Z,100510.31
2022-11-19T17:13:02.633Z,100502.25
2022-11-19T17:15:38.755Z,100508.28
2022-11-19T17:18:17.457Z,100500.84
2022-11-19T17:20:44.053Z,100504.75
2022-11-19T17:23:19.221Z,100499.31
2022-11-19T17:25:58.154Z,100497.69
2022-11-19T17:28:36.020Z,100497.94
2022-11-19T17:31:15.584Z,100497.53
2022-11-19T17:34:00.458Z,100500.41
2022-11-19T17:36:31.731Z,100495.72
2022-11-19T17:38:58.689Z,100498.75
2022-11-19T17:41:46.957Z,100494.47
2022-11-19T17:44:31.715Z,100491.63
2022-11-19T17:46:58.776Z,100492.59
2022-11-19T17:49:25.366Z,100494.44
2022-11-19T17:51:52.573Z,100489.41
2022-11-19T17:54:19.792Z,100492.66
2022-11-19T17:56:49.159Z,100497.06
2022-11-19T17:59:15.766Z,100497.03
2022-11-19T18:01:42.594Z,100490.06
2022-11-19T18:04:12.473Z,100492.66
2022-11-19T18:06:39.494Z,100490.28
2022-11-19T18:09:06.260Z,100501.41
2022-11-19T18:11:33.061Z,100498.75
2022-11-19T18:14:01.936Z,100491.88
2022-11-19T18:16:34.197Z,100502.91
2022-11-19T18:19:00.938Z,100500.84
2022-11-19T18:21:27.697Z,100507.22
2022-11-19T18:23:57.063Z,100493.09
2022-11-19T18:26:24.746Z,100501.97
2022-11-19T18:28:51.377Z,100503.06
2022-11-19T18:31:21.530Z,100485.31
2022-11-19T18:33:49.280Z,100501.16
2022-11-19T18:36:17.231Z,100499.47
2022-11-19T18:38:46.945Z,100504.63
2022-11-19T18:41:23.325Z,100503.28
2022-11-19T18:44:08.436Z,100497.53
2022-11-19T18:46:35.216Z,100498.59
2022-11-19T18:49:02.428Z,100494.19
2022-11-19T18:51:36.375Z,100502.78
2022-11-19T18:54:05.052Z,100486.44
2022-11-19T18:56:31.635Z,100486.41
2022-11-19T18:59:04.359Z,100478.38
2022-11-19T19:01:31.652Z,100474.22
2022-11-19T19:03:58.388Z,100463.84
2022-11-19T19:06:25.499Z,100464.19
2022-11-19T19:08:52.094Z,100460.75
2022-11-19T19:11:37.148Z,100466.72
2022-11-19T19:14:04.170Z,100459.16
2022-11-19T19:16:30.826Z,100464.09
2022-11-19T19:18:57.551Z,100463.81
2022-11-19T19:21:24.738Z,100466.50
2022-11-19T19:23:51.420Z,100469.34
2022-11-19T19:26:19.875Z,100473.38
2022-11-19T19:28:51.867Z,100475.00
2022-11-19T19:31:22.840Z,100475.22
2022-11-19T19:33:49.927Z,100471.34
2022-11-19T19:36:18.898Z,100466.72
2022-11-19T19:38:46.011Z,100473.41
2022-11-19T19:41:25.374Z,100468.81
2022-11-19T19:43:54.157Z,100468.34
2022-11-19T19:46:22.994Z,100471.84
2022-11-19T19:48:52.668Z,100463.38
2022-11-19T19:51:20.912Z,100469.69
2022-11-19T19:53:48.531Z,100477.19
2022-11-19T19:56:20.703Z,100472.81
2022-11-19T19:58:49.216Z,100472.88
2022-11-19T20:01:18.245Z,100473.03
2022-11-19T20:03:44.992Z,100469.22
2022-11-19T20:06:13.824Z,100480.69
2022-11-19T20:08:42.082Z,100482.66
2022-11-19T20:11:25.940Z,100478.31
2022-11-19T20:13:54.051Z,100480.19
2022-11-19T20:16:26.677Z,100475.16
2022-11-19T20:18:55.134Z,100483.66
2022-11-19T20:21:38.253Z,100481.25
2022-11-19T20:24:12.403Z,100488.94
2022-11-19T20:26:40.881Z,100471.19
2022-11-19T20:29:11.527Z,100482.19
2022-11-19T20:31:40.313Z,100472.81
2022-11-19T20:34:08.730Z,100477.03
2022-11-19T20:36:37.419Z,100478.09
2022-11-19T20:39:09.647Z,100474.81
2022-11-19T20:41:54.921Z,100476.56
2022-11-19T20:44:27.038Z,100471.50
2022-11-19T20:47:02.959Z,100478.97
2022-11-19T20:49:35.351Z,100477.22
2022-11-19T20:52:03.590Z,100480.00
2022-11-19T20:54:30.290Z,100490.94
2022-11-19T20:56:59.841Z,100491.06
2022-11-19T20:59:27.806Z,100485.13
2022-11-19T21:01:56.031Z,100482.56
2022-11-19T21:04:24.793Z,100490.03
2022-11-19T21:06:54.372Z,100490.19
2022-11-19T21:09:21.492Z,100490.50
2022-11-19T21:11:48.596Z,100489.25
2022-11-19T21:14:15.260Z,100497.91
2022-11-19T21:16:41.824Z,100501.28
2022-11-19T21:19:12.435Z,100500.31
2022-11-19T21:21:39.066Z,100496.94
2022-11-19T21:24:07.185Z,100499.38
2022-11-19T21:26:34.095Z,100502.69
2022-11-19T21:29:00.740Z,100507.44
2022-11-19T21:31:42.377Z,100501.06
2022-11-19T21:34:11.623Z,100508.34
2022-11-19T21:36:42.433Z,100496.16
2022-11-19T21:39:14.692Z,100502.69
2022-11-19T21:41:44.920Z,100508.44
2022-11-19T21:44:14.271Z,100508.22
2022-11-19T21:46:44.848Z,100512.06
2022-11-19T21:49:11.422Z,100501.22
2022-11-19T21:51:38.194Z,100511.94
2022-11-19T21:54:07.308Z,100502.69
2022-11-19T21:56:38.601Z,100503.69
2022-11-19T21:59:06.984Z,100501.06
2022-11-19T22:01:35.690Z,100509.41
2022-11-19T22:04:02.573Z,100511.06
2022-11-19T22:06:33.426Z,100515.38
2022-11-19T22:09:00.089Z,100518.75
2022-11-19T22:11:29.956Z,100515.38
2022-11-19T22:14:02.174Z,100505.88
2022-11-19T22:16:30.495Z,100508.50
2022-11-19T22:18:57.213Z,100510.19
2022-11-19T22:21:23.950Z,100514.56
2022-11-19T22:23:52.568Z,100511.97
2022-11-19T22:26:19.200Z,100513.63
2022-11-19T22:28:46.545Z,100510.97
2022-11-19T22:31:14.235Z,100504.09
2022-11-19T22:33:41.440Z,100511.81
2022-11-19T22:36:10.596Z,100503.25
2022-11-19T22:38:38.485Z,100491.34
2022-11-19T22:41:08.240Z,100511.06
2022-11-19T22:43:36.341Z,100503.28
2022-11-19T22:46:06.556Z,100501.53
2022-11-19T22:48:34.641Z,100501.50
2022-11-19T22:51:23.779Z,100498.25
2022-11-19T22:53:51.824Z,100500.13
2022-11-19T22:56:24.326Z,100497.69
2022-11-19T22:58:52.706Z,100496.81
2022-11-19T23:01:24.979Z,100496.94
2022-11-19T23:03:52.854Z,100502.88
2022-11-19T23:06:19.648Z,100495.88
2022-11-19T23:08:46.828Z,100498.44
2022-11-19T23:11:14.940Z,100501.19
2022-11-19T23:13:44.257Z,100499.56
2022-11-19T23:16:13.669Z,100491.88
2022-11-19T23:19:01.742Z,100486.16
2022-11-19T23:21:31.452Z,100503.28
2022-11-19T23:23:59.902Z,100489.56
2022-11-19T23:26:31.069Z,100502.38
2022-11-19T23:28:58.100Z,100486.56
2022-11-19T23:31:27.589Z,100483.38
2022-11-19T23:33:58.994Z,100491.22
2022-11-19T23:36:45.787Z,100492.22
2022-11-19T23:39:18.297Z,100493.88
2022-11-19T23:41:45.500Z,100482.03
2022-11-19T23:44:12.260Z,100488.09
2022-11-19T23:46:39.121Z,100502.63
2022-11-19T23:49:05.943Z,100501.94
2022-11-19T23:51:35.631Z,100493.50
2022-11-19T23:54:02.896Z,100510.53
2022-11-19T23:56:31.772Z,100496.94
2022-11-19T23:59:00.600Z,100504.44
